M I D A S
Marine Information and Data Acquisition System
Tripno 487 of the Zeeleeuw from 2003-04-08 07:50:36 to 2003-04-08 14:24:24
Back to CruiseResearch ActivitiesStationsMapUnderway DataData graphs

EquipmentUnitsComment
TimeDGPSUTC
LatitudeDGPSDM.mWGS84
LongitudeDGPSDM.mWGS84
TemperatureSBE03/SBE38deg celciusITS90
ConductivitySBE21S/mITS90
SalinitySBE21 Practical Salinity Units
ChlorophylAChelsea fluorimeterg/lCalibrated in Aceton
Missing or incorrect values are displayed as -999
Sea surface data collected by the RV Zeeleeuw from 2003-04-08 07:50:36 to 2003-04-08 14:24:24
Time Latitude Longitude Temperature Conductivity Salinity ChlorophylA
2003-04-08 07:51:39 51°13.601 2°56.096 11.746582 3.532419 29.206367 -0.848668
2003-04-08 07:52:40 51°13.619 2°56.012 11.758684 3.531892 29.206249 -0.882377
2003-04-08 07:53:40 51°13.65 2°55.884 11.75914 3.531471 29.207687 -0.882377
2003-04-08 07:54:39 51°13.677 2°55.778 11.764117 3.53105 29.206767 -0.882377
2003-04-08 07:55:38 51°13.69 2°55.766 11.767816 3.530628 29.208206 -0.882377
2003-04-08 07:56:39 51°13.718 2°55.773 11.775394 3.530207 29.206697 -0.882377
2003-04-08 07:57:38 51°13.707 2°55.77 11.769185 3.529785 29.205188 -0.882377
2003-04-08 07:58:38 51°13.767 2°55.703 11.784022 3.529364 29.205448 -0.882377
2003-04-08 07:59:38 51°13.865 2°55.607 11.785848 3.529048 29.207265 -0.882377
2003-04-08 08:00:39 51°13.98 2°55.521 11.792238 3.528521 29.206558 -0.882377
2003-04-08 08:01:38 51°14.097 2°55.439 11.800087 3.528205 29.207196 -0.848668
2003-04-08 08:02:39 51°14.212 2°55.333 11.806293 3.527679 29.206489 -0.848668
2003-04-08 08:03:38 51°14.301 2°55.185 11.810309 3.527363 29.208309 -0.882377
2003-04-08 08:04:38 51°14.377 2°55.013 11.800726 3.526836 29.208192 -0.848668
2003-04-08 08:05:38 51°14.4 2°54.804 11.792694 3.52652 29.210603 -0.848668
2003-04-08 08:06:38 51°14.392 2°54.597 11.788952 3.525993 29.21167 -0.882377
2003-04-08 08:07:38 51°14.37 2°54.452 11.790184 3.525256 29.211391 -0.882377
2003-04-08 08:08:38 51°14.348 2°54.337 -999 3.524624 29.210899 -0.848668
2003-04-08 08:09:39 51°14.322 2°54.24 -999 3.523992 29.210998 -0.882377
2003-04-08 08:10:38 51°14.294 2°54.159 -999 3.52336 29.211097 -0.882377
2003-04-08 08:11:38 51°14.253 2°54.026 -999 3.522938 29.211361 -0.882377
2003-04-08 08:12:39 51°14.166 2°53.739 -999 3.522096 29.209522 -0.882377
2003-04-08 08:13:39 51°14.072 2°53.417 -999 3.521674 29.210378 -0.882377
2003-04-08 08:14:39 51°13.974 2°53.09 -999 3.521253 29.212418 -0.882377
2003-04-08 08:15:38 51°13.866 2°52.776 -999 3.520516 29.210365 -0.882377
2003-04-08 08:16:39 51°13.756 2°52.456 -999 3.520094 29.21063 -0.882377
2003-04-08 08:17:39 51°13.646 2°52.139 -999 3.519462 29.208363 -0.882377
2003-04-08 08:18:38 51°13.539 2°51.829 -999 3.519041 29.208036 -0.882377
2003-04-08 08:19:39 51°13.429 2°51.504 -999 3.518409 29.205768 -0.882377
2003-04-08 08:20:39 51°13.316 2°51.177 -999 3.517987 29.20781 -0.882377
2003-04-08 08:21:38 51°13.2 2°50.84 -999 3.517777 29.211201 -0.882377
2003-04-08 08:22:39 51°13.081 2°50.49 -999 3.517039 29.203816 -0.882377
2003-04-08 08:23:39 51°12.966 2°50.143 -999 3.516513 29.207258 -0.882377
2003-04-08 08:24:38 51°12.852 2°49.802 -999 3.516091 29.201006 -0.882377
2003-04-08 08:25:38 51°12.735 2°49.457 -999 3.515881 29.207361 -0.848668
2003-04-08 08:26:38 51°12.619 2°49.108 -999 3.515459 29.205256 -0.882377
2003-04-08 08:27:39 51°12.501 2°48.753 -999 3.515249 29.207464 -0.882377
2003-04-08 08:28:38 51°12.387 2°48.411 -999 3.514933 29.211074 -0.882377
2003-04-08 08:29:38 51°12.271 2°48.065 -999 3.514195 29.201904 -0.882377
2003-04-08 08:30:38 51°12.156 2°47.718 -999 3.513774 29.205728 -0.916087
2003-04-08 08:31:39 51°12.038 2°47.364 -999 3.513668 29.206537 -0.916087
2003-04-08 08:32:39 51°11.921 2°47.015 -999 3.513247 29.20621 -0.882377
2003-04-08 08:33:38 51°11.809 2°46.671 -999 3.512826 29.207664 -0.916087
2003-04-08 08:34:39 51°11.695 2°46.313 -999 3.512299 29.202806 -0.882377
2003-04-08 08:35:39 51°11.595 2°45.951 -999 3.511878 29.205447 -0.916087
2003-04-08 08:36:38 51°11.498 2°45.596 -999 3.511456 29.204528 -0.916087
2003-04-08 08:37:38 51°11.398 2°45.235 -999 3.511035 29.204201 -0.882377
2003-04-08 08:38:39 51°11.297 2°44.868 -999 3.510824 29.204632 -0.848668
2003-04-08 08:39:38 51°11.207 2°44.504 -999 3.510298 29.203928 -0.848668
2003-04-08 08:40:39 51°11.119 2°44.127 -999 3.509876 29.203008 -0.882377
2003-04-08 08:41:39 51°11.031 2°43.756 -999 3.509666 29.203439 -0.882377
2003-04-08 08:42:38 51°10.944 2°43.393 -999 3.509139 29.202141 -0.916087
2003-04-08 08:43:38 51°10.857 2°43.021 -999 3.508717 29.201815 -0.848668
2003-04-08 08:44:39 51°10.77 2°42.643 12.806772 3.508402 29.204245 -0.882377
2003-04-08 08:45:39 51°10.722 2°42.252 12.852109 3.507875 29.199381 -0.882377
2003-04-08 08:46:39 51°10.683 2°41.858 12.823805 3.507664 29.201595 -0.882377
2003-04-08 08:47:38 51°10.629 2°41.476 12.696648 3.507348 29.20046 -0.848668
2003-04-08 08:48:38 51°10.552 2°41.097 13.017961 3.507032 29.200512 -0.848668
2003-04-08 08:49:39 51°10.474 2°40.711 12.949418 3.506716 29.200566 -0.848668
2003-04-08 08:50:39 51°10.384 2°40.337 13.223482 3.506505 29.201592 -0.882377
2003-04-08 08:51:38 51°10.294 2°39.974 13.351156 3.505873 29.19932 -0.882377
2003-04-08 08:52:39 51°10.202 2°39.599 12.66008 3.505557 29.199373 -0.882377
2003-04-08 08:53:38 51°10.113 2°39.232 13.187023 3.505241 29.198237 -0.848668
2003-04-08 08:54:38 51°10.022 2°38.859 13.292593 3.50482 29.199696 -0.848668
2003-04-08 08:55:39 51°9.93 2°38.48 13.016976 3.504504 29.19737 -0.848668
2003-04-08 08:56:39 51°9.834 2°38.121 12.631604 3.504188 29.198018 -0.848668
2003-04-08 08:57:39 51°9.734 2°37.757 13.123396 3.503767 29.197693 -0.848668
2003-04-08 08:58:38 51°9.635 2°37.396 13.481968 3.503661 29.198504 -0.882377
2003-04-08 08:59:39 51°9.532 2°37.027 12.970719 3.503134 29.193041 -0.814958
2003-04-08 09:00:39 51°9.432 2°36.659 12.71695 3.502924 29.194663 -0.848668
2003-04-08 09:01:38 51°9.335 2°36.296 13.47556 3.502713 29.195095 -0.882377
2003-04-08 09:02:38 51°9.235 2°35.926 12.972423 3.502397 29.195149 -0.848668
2003-04-08 09:03:39 51°9.132 2°35.549 13.481612 3.502186 29.196176 -0.848668
2003-04-08 09:04:38 51°9.034 2°35.182 13.197436 3.501976 29.195419 -0.848668
2003-04-08 09:05:39 51°8.93 2°34.804 13.45393 3.50166 29.196663 -0.848668
2003-04-08 09:06:38 51°8.829 2°34.436 13.344602 3.501344 29.195526 -0.882377
2003-04-08 09:07:39 51°8.723 2°34.057 -999 3.501028 29.196176 -0.612702
2003-04-08 09:08:38 51°8.621 2°33.692 -999 3.500712 29.194443 -0.848668
2003-04-08 09:09:38 51°8.542 2°33.368 -999 3.500606 29.196447 -0.848668
2003-04-08 09:10:38 51°8.544 2°33.173 -999 3.50029 29.196501 -0.848668
2003-04-08 09:11:39 51°8.584 2°33.068 -999 3.499869 29.195581 -0.848668
2003-04-08 09:12:39 51°8.629 2°33.048 -999 3.499764 29.195797 -0.882377
2003-04-08 09:13:38 51°8.643 2°33.076 -999 3.499448 29.195256 -0.814958
2003-04-08 09:14:39 51°8.637 2°33.057 -999 3.499132 29.196502 -0.882377
2003-04-08 09:15:38 51°8.63 2°33.024 -999 3.498921 29.198724 -0.848668
2003-04-08 09:16:38 51°8.62 2°32.991 -999 3.4985 29.1984 -0.848668
2003-04-08 09:17:39 51°8.608 2°32.957 -999 3.498289 29.200027 -0.848668
2003-04-08 09:18:39 51°8.595 2°32.924 -999 3.497973 29.199486 -0.882377
2003-04-08 09:19:38 51°8.582 2°32.89 -999 3.497657 29.199541 -0.848668
2003-04-08 09:20:39 51°8.566 2°32.857 -999 3.497341 29.199597 -0.882377
2003-04-08 09:21:38 51°8.548 2°32.827 -999 3.497025 29.199652 -0.848668
2003-04-08 09:22:39 51°8.533 2°32.795 -999 3.496498 29.198353 -0.814958
2003-04-08 09:23:38 51°8.519 2°32.765 -999 3.496288 29.200578 -0.848668
2003-04-08 09:24:39 51°8.498 2°32.742 -999 3.495972 29.200634 -0.848668
2003-04-08 09:25:39 51°8.472 2°32.73 -999 3.49555 29.199714 -0.882377
2003-04-08 09:26:39 51°8.449 2°32.725 -999 3.495234 29.200964 -0.814958
2003-04-08 09:27:39 51°8.426 2°32.733 -999 3.494918 29.201618 -0.848668
2003-04-08 09:28:39 51°8.413 2°32.77 -999 3.494497 29.201295 -0.848668
2003-04-08 09:29:39 51°8.406 2°32.819 -999 3.494181 29.201351 -0.814958
2003-04-08 09:30:39 51°8.397 2°32.869 -999 3.49376 29.202821 -0.848668
2003-04-08 09:31:39 51°8.412 2°32.919 -999 3.493549 29.203854 -0.882377
2003-04-08 09:32:39 51°8.422 2°32.981 -999 3.493128 29.202935 -0.848668
2003-04-08 09:33:38 51°8.431 2°33.045 -999 3.492812 29.203589 -0.848668
2003-04-08 09:34:39 51°8.444 2°33.097 -999 3.492285 29.202888 -0.848668
2003-04-08 09:35:38 51°8.457 2°33.144 -999 3.491969 29.203543 -0.848668
2003-04-08 09:36:38 51°8.47 2°33.194 -999 3.491653 29.204797 -0.882377
2003-04-08 09:37:39 51°8.473 2°33.243 -999 3.491337 29.20605 -0.882377
2003-04-08 09:38:39 51°8.479 2°33.292 -999 3.490705 29.204372 -0.814958
2003-04-08 09:39:39 51°8.489 2°33.338 -999 3.490494 29.207202 -0.848668
2003-04-08 09:40:38 51°8.506 2°33.379 -999 3.489968 29.205904 -0.848668
2003-04-08 09:41:38 51°8.531 2°33.413 -999 3.489652 29.20656 -0.848668
2003-04-08 09:42:39 51°8.55 2°33.452 -999 3.48923 29.206838 -0.848668
2003-04-08 09:43:39 51°8.563 2°33.497 -999 3.488809 29.207714 -0.882377
2003-04-08 09:44:39 51°8.58 2°33.537 -999 3.488388 29.207394 -0.882377
2003-04-08 09:45:39 51°8.602 2°33.573 -999 3.487861 29.206694 -0.848668
2003-04-08 09:46:39 51°8.624 2°33.611 -999 3.487545 29.207951 -0.848668
2003-04-08 09:47:39 51°8.634 2°33.656 -999 3.487124 29.20763 -0.848668
2003-04-08 09:48:39 51°8.635 2°33.703 -999 3.486597 29.20753 -0.882377
2003-04-08 09:49:39 51°8.64 2°33.753 -999 3.486281 29.208188 -0.848668
2003-04-08 09:50:39 51°8.643 2°33.8 -999 3.48586 29.207868 -0.814958
2003-04-08 09:51:38 51°8.646 2°33.847 -999 3.485333 29.206569 -0.848668
2003-04-08 09:52:39 51°8.657 2°33.887 -999 3.485017 29.206629 -0.882377
2003-04-08 09:53:39 51°8.675 2°33.921 -999 3.484806 29.207069 -0.848668
2003-04-08 09:54:39 51°8.698 2°33.95 -999 3.484596 29.207508 -0.848668
2003-04-08 09:55:38 51°8.721 2°33.98 -999 3.484069 29.20501 -0.848668
2003-04-08 09:56:38 51°8.734 2°34.02 -999 3.483858 29.207249 -0.848668
2003-04-08 09:57:39 51°8.747 2°34.065 -999 3.483648 29.208289 -0.848668
2003-04-08 09:58:39 51°8.76 2°34.104 -999 3.483226 29.206769 -0.882377
2003-04-08 09:59:38 51°8.778 2°34.14 -999 3.483016 29.20781 -0.814958
2003-04-08 10:00:39 51°8.795 2°34.179 -999 3.4827 29.20847 -0.848668
2003-04-08 10:01:38 51°8.806 2°34.217 -999 3.482278 29.207551 -0.848668
2003-04-08 10:02:39 51°8.818 2°34.253 -999 3.482068 29.207991 -0.882377
2003-04-08 10:03:39 51°8.839 2°34.287 -999 3.481857 29.208432 -0.848668
2003-04-08 10:04:39 51°8.856 2°34.324 -999 3.481541 29.207893 -0.848668
2003-04-08 10:05:38 51°8.867 2°34.368 -999 3.48133 29.208934 -0.882377
2003-04-08 10:06:38 51°8.865 2°34.41 -999 3.48112 29.210576 -0.882377
2003-04-08 10:07:39 51°8.855 2°34.44 -999 3.480909 29.211017 -0.848668
2003-04-08 10:08:39 51°8.843 2°34.461 -999 3.480488 29.210699 -0.882377
2003-04-08 10:09:38 51°8.82 2°34.476 -999 3.480382 29.212721 -0.882377
2003-04-08 10:10:38 51°8.779 2°34.471 -999 3.480172 29.214365 -0.882377
2003-04-08 10:11:39 51°8.738 2°34.453 -999 3.47975 29.213446 -0.848668
2003-04-08 10:12:39 51°8.702 2°34.432 -999 3.47954 29.21509 -0.882377
2003-04-08 10:13:38 51°8.673 2°34.409 -999 3.479118 29.215374 -0.848668
2003-04-08 10:14:39 51°8.642 2°34.38 -999 3.478908 29.21762 -0.848668
2003-04-08 10:15:38 51°8.618 2°34.35 -999 3.478381 29.217524 -0.848668
2003-04-08 10:16:38 51°8.59 2°34.317 -999 3.47796 29.21841 -0.848668
2003-04-08 10:17:39 51°8.564 2°34.282 -999 3.477539 29.219296 -0.848668
2003-04-08 10:18:39 51°8.542 2°34.248 -999 3.476801 29.21784 -0.848668
2003-04-08 10:19:38 51°8.503 2°34.211 -999 3.476591 29.220691 -0.848668
2003-04-08 10:20:39 51°8.46 2°34.139 -999 3.476064 29.221801 -0.882377
2003-04-08 10:21:39 51°8.444 2°34.035 -999 3.475537 29.221707 -0.882377
2003-04-08 10:22:39 51°8.458 2°33.948 -999 3.475011 29.221011 -0.882377
2003-04-08 10:23:39 51°8.488 2°33.891 -999 3.474484 29.220315 -0.882377
2003-04-08 10:24:38 51°8.525 2°33.861 -999 3.473957 29.220222 -0.848668
2003-04-08 10:25:39 51°8.568 2°33.841 14.091146 3.473431 29.220731 -0.848668
2003-04-08 10:26:38 51°8.602 2°33.828 13.824821 3.473009 29.221621 -0.882377
2003-04-08 10:27:39 51°8.629 2°33.821 14.082063 3.472588 29.22432 -0.882377
2003-04-08 10:28:39 51°8.647 2°33.815 13.684341 3.471956 29.225657 -0.882377
2003-04-08 10:29:38 51°8.668 2°33.806 13.686604 3.471219 29.226012 -0.848668
2003-04-08 10:30:38 51°8.687 2°33.798 14.020338 3.470587 29.227351 -0.848668
2003-04-08 10:31:39 51°8.7 2°33.794 14.522282 3.469955 29.228087 -0.882377
2003-04-08 10:32:39 51°8.707 2°33.793 14.129586 3.469217 29.22784 -0.814958
2003-04-08 10:33:39 51°8.705 2°33.788 13.987092 3.46848 29.226386 -0.882377
2003-04-08 10:34:39 51°8.7 2°33.778 14.350185 3.467743 29.224931 -0.882377
2003-04-08 10:35:39 51°8.688 2°33.75 14.135402 3.467216 29.224237 -0.848668
2003-04-08 10:36:39 51°8.672 2°33.707 14.316003 3.466584 29.222558 -0.848668
2003-04-08 10:37:39 51°8.658 2°33.663 14.278813 3.466163 29.221036 -0.848668
2003-04-08 10:38:39 51°8.641 2°33.62 14.27723 3.465636 29.218529 -0.882377
2003-04-08 10:39:39 51°8.625 2°33.578 14.276087 3.46532 29.219804 -0.848668
2003-04-08 10:40:39 51°8.606 2°33.536 14.954775 3.464899 29.220699 -0.848668
2003-04-08 10:41:39 51°8.587 2°33.498 14.842365 3.464477 29.221595 -0.848668
2003-04-08 10:42:39 51°8.568 2°33.461 14.231968 3.463845 29.221729 -0.848668
2003-04-08 10:43:39 51°8.548 2°33.426 14.58368 3.463319 29.222245 -0.882377
2003-04-08 10:44:39 51°8.529 2°33.393 14.543046 3.463003 29.225338 -0.848668
2003-04-08 10:45:38 51°8.51 2°33.36 14.432976 3.462371 29.22487 -0.848668
2003-04-08 10:46:39 51°8.489 2°33.328 14.820907 3.461739 29.226217 -0.848668
2003-04-08 10:47:39 51°8.471 2°33.297 15.245867 3.461002 29.225368 -0.848668
2003-04-08 10:48:39 51°8.451 2°33.267 14.778277 3.460475 29.225887 -0.848668
2003-04-08 10:49:39 51°8.43 2°33.253 14.596023 3.459738 29.225038 -0.814958
2003-04-08 10:50:39 51°8.413 2°33.248 14.670732 3.459211 29.225557 -0.882377
2003-04-08 10:51:39 51°8.406 2°33.245 15.089725 3.458579 29.22509 -0.848668
2003-04-08 10:52:39 51°8.408 2°33.241 14.730685 3.457947 29.224016 -0.848668
2003-04-08 10:53:39 51°8.421 2°33.228 15.329692 3.45721 29.221956 -0.848668
2003-04-08 10:54:39 51°8.443 2°33.203 14.543616 3.456788 29.221644 -0.848668
2003-04-08 10:55:39 51°8.469 2°33.17 14.864775 3.456262 29.222164 -0.848668
2003-04-08 10:56:39 51°8.498 2°33.134 14.923641 3.45563 29.221697 -0.848668
2003-04-08 10:57:39 51°8.529 2°33.094 15.095156 3.455103 29.222825 -0.848668
2003-04-08 10:58:39 51°8.559 2°33.045 15.27746 3.454576 29.22456 -0.882377
2003-04-08 10:59:39 51°8.589 2°32.995 15.438921 3.453734 29.222725 -0.848668
2003-04-08 11:00:39 51°8.621 2°32.944 15.712411 3.453207 29.224461 -0.848668
2003-04-08 11:01:39 51°8.65 2°32.893 15.356702 3.45247 29.225437 -0.882377
2003-04-08 11:02:39 51°8.676 2°32.843 15.594134 3.451838 29.226794 -0.848668
2003-04-08 11:03:39 51°8.699 2°32.799 15.275987 3.450995 29.225567 -0.848668
2003-04-08 11:04:39 51°8.719 2°32.755 15.264331 3.450363 29.226318 -0.848668
2003-04-08 11:05:38 51°8.736 2°32.72 15.080514 3.449521 29.225699 -0.848668
2003-04-08 11:06:38 51°8.749 2°32.688 15.247645 3.448678 29.226297 -0.848668
2003-04-08 11:07:39 51°8.759 2°32.665 15.313152 3.448046 29.227659 -0.882377
2003-04-08 11:08:39 51°8.766 2°32.651 15.022479 3.447098 29.227269 -0.882377
2003-04-08 11:09:39 51°8.769 2°32.645 15.407447 3.44615 29.225661 -0.882377
2003-04-08 11:10:39 51°8.757 2°32.645 15.788525 3.445624 29.228016 -0.848668
2003-04-08 11:11:39 51°8.739 2°32.65 15.212135 3.444676 29.226409 -0.882377
2003-04-08 11:12:38 51°8.715 2°32.655 15.449337 3.444149 29.226938 -0.848668
2003-04-08 11:13:38 51°8.688 2°32.66 15.229567 3.443412 29.225484 -0.848668
2003-04-08 11:14:38 51°8.667 2°32.665 15.318002 3.44278 29.223803 -0.848668
2003-04-08 11:15:39 51°8.647 2°32.664 15.705135 3.442148 29.223341 -0.848668
2003-04-08 11:16:39 51°8.632 2°32.65 15.338913 3.441621 29.223261 -0.848668
2003-04-08 11:17:39 51°8.617 2°32.627 15.326359 3.440884 29.221198 -0.848668
2003-04-08 11:18:38 51°8.598 2°32.603 15.491418 3.440568 29.223101 -0.848668
2003-04-08 11:19:39 51°8.58 2°32.57 15.483816 3.439936 29.22142 -0.882377
2003-04-08 11:20:39 51°8.562 2°32.54 15.653191 3.439409 29.22012 -0.848668
2003-04-08 11:21:39 51°8.542 2°32.509 15.427811 3.438988 29.219202 -0.848668
2003-04-08 11:22:38 51°8.521 2°32.483 15.550003 3.438672 29.219886 -0.848668
2003-04-08 11:23:39 51°8.501 2°32.458 15.786246 3.438356 29.220571 -0.848668
2003-04-08 11:24:39 51°8.479 2°32.431 15.619401 3.437829 29.218661 -0.848668
2003-04-08 11:25:39 51°8.459 2°32.401 15.365617 3.437513 29.219346 -0.848668
2003-04-08 11:26:39 51°8.44 2°32.368 15.361809 3.437197 29.220031 -0.882377
2003-04-08 11:27:39 51°8.421 2°32.34 15.447479 3.436671 29.219341 -0.848668
2003-04-08 11:28:39 51°8.398 2°32.306 15.670553 3.43625 29.219645 -0.882377
2003-04-08 11:29:39 51°8.377 2°32.273 15.79863 3.436039 29.221935 -0.814958
2003-04-08 11:30:39 51°8.358 2°32.24 15.864383 3.435618 29.222239 -0.814958
2003-04-08 11:31:39 51°8.335 2°32.207 16.048025 3.435196 29.221933 -0.882377
2003-04-08 11:32:39 51°8.314 2°32.175 15.796008 3.434775 29.221626 -0.882377
2003-04-08 11:33:38 51°8.298 2°32.142 15.715296 3.434459 29.222313 -0.848668
2003-04-08 11:34:38 51°8.278 2°32.112 15.785429 3.434038 29.222618 -0.882377
2003-04-08 11:35:39 51°8.256 2°32.079 15.673008 3.433511 29.222541 -0.848668
2003-04-08 11:36:39 51°8.237 2°32.049 16.185487 3.432984 29.222464 -0.848668
2003-04-08 11:37:38 51°8.218 2°32.02 16.381913 3.432669 29.224376 -0.848668
2003-04-08 11:38:39 51°8.198 2°31.988 15.772785 3.432247 29.225294 -0.848668
2003-04-08 11:39:38 51°8.177 2°31.956 15.495953 3.431615 29.224836 -0.882377
2003-04-08 11:40:39 51°8.156 2°31.923 16.25514 3.430983 29.223153 -0.848668
2003-04-08 11:41:39 51°8.137 2°31.892 16.140453 3.430562 29.225297 -0.848668
2003-04-08 11:42:39 51°8.121 2°31.858 15.391358 3.430035 29.225222 -0.882377
2003-04-08 11:43:39 51°8.102 2°31.828 16.430665 3.429614 29.226142 -0.848668
2003-04-08 11:44:39 51°8.08 2°31.8 16.206348 3.428982 29.225072 -0.882377
2003-04-08 11:45:39 51°8.078 2°31.852 16.034787 3.428456 29.226836 -0.848668
2003-04-08 11:46:39 51°8.144 2°32.082 16.097658 3.427929 29.224311 -0.848668
2003-04-08 11:47:39 51°8.239 2°32.368 15.995655 3.427508 29.224619 -0.848668
2003-04-08 11:48:39 51°8.337 2°32.658 15.994755 3.426876 29.224162 -0.848668
2003-04-08 11:49:39 51°8.428 2°32.944 15.997199 3.426454 29.225698 -0.848668
2003-04-08 11:50:39 51°8.523 2°33.234 16.292159 3.425928 29.226851 -0.848668
2003-04-08 11:51:39 51°8.618 2°33.522 16.222373 3.425191 29.225399 -0.848668
2003-04-08 11:52:38 51°8.712 2°33.807 16.292287 3.424769 29.22755 -0.848668
2003-04-08 11:53:39 51°8.809 2°34.099 16.526577 3.424137 29.227709 -0.848668
2003-04-08 11:54:39 51°8.894 2°34.389 15.667408 3.4234 29.226871 -0.848668
2003-04-08 11:55:39 51°8.982 2°34.677 16.029302 3.422768 29.227644 -0.882377
2003-04-08 11:56:39 51°9.068 2°34.966 15.829452 3.422242 29.228802 -0.848668
2003-04-08 11:57:39 51°9.157 2°35.259 16.222843 3.421399 29.226967 -0.882377
2003-04-08 11:58:39 51°9.247 2°35.552 16.238993 3.420556 29.225747 -0.882377
2003-04-08 11:59:39 51°9.334 2°35.843 16.235362 3.419924 29.226523 -0.848668
2003-04-08 12:00:39 51°9.421 2°36.134 16.023945 3.419292 29.227914 -0.848668
2003-04-08 12:01:38 51°9.522 2°36.402 16.350615 3.41845 29.22731 -0.814958
2003-04-08 12:02:38 51°9.601 2°36.486 16.35505 3.417818 29.228087 -0.848668
2003-04-08 12:03:39 51°9.626 2°36.515 15.991497 3.416975 29.226868 -0.882377
2003-04-08 12:04:38 51°9.631 2°36.531 16.503941 3.416238 29.227264 -0.848668
2003-04-08 12:05:39 51°9.641 2°36.548 16.069485 3.415501 29.226428 -0.882377
2003-04-08 12:06:39 51°9.662 2°36.571 15.905994 3.414764 29.224361 -0.848668
2003-04-08 12:07:39 51°9.683 2°36.624 16.315889 3.414026 29.222909 -0.814958
2003-04-08 12:08:39 51°9.692 2°36.694 16.017088 3.4135 29.223456 -0.882377
2003-04-08 12:09:39 51°9.707 2°36.752 16.445361 3.412868 29.222388 -0.848668
2003-04-08 12:10:39 51°9.727 2°36.797 16.773295 3.412341 29.221087 -0.848668
2003-04-08 12:11:39 51°9.744 2°36.842 16.585853 3.411709 29.218786 -0.848668
2003-04-08 12:12:39 51°9.753 2°36.884 16.705186 3.411288 29.219717 -0.848668
2003-04-08 12:13:38 51°9.761 2°36.923 16.687702 3.410867 29.218799 -0.848668
2003-04-08 12:14:39 51°9.771 2°36.966 16.562259 3.410445 29.217881 -0.848668
2003-04-08 12:15:39 51°9.779 2°37.001 16.895476 3.409813 29.215579 -0.848668
2003-04-08 12:16:39 51°9.786 2°37.04 16.508154 3.409708 29.217045 -0.882377
2003-04-08 12:17:39 51°9.798 2°37.076 16.638198 3.409287 29.216127 -0.848668
2003-04-08 12:18:39 51°9.809 2°37.113 16.340677 3.408971 29.215593 -0.848668
2003-04-08 12:19:39 51°9.821 2°37.149 16.661681 3.408655 29.214441 -0.814958
2003-04-08 12:20:39 51°9.839 2°37.181 16.785501 3.408444 29.214907 -0.848668
2003-04-08 12:21:39 51°9.859 2°37.21 16.449705 3.408339 29.216991 -0.848668
2003-04-08 12:22:39 51°9.876 2°37.243 16.497302 3.408023 29.218308 -0.848668
2003-04-08 12:23:38 51°9.89 2°37.283 16.68889 3.407707 29.219009 -0.848668
2003-04-08 12:24:39 51°9.904 2°37.319 16.82088 3.407286 29.218708 -0.814958
2003-04-08 12:25:39 51°9.923 2°37.353 16.781433 3.40697 29.220026 -0.882377
2003-04-08 12:26:38 51°9.936 2°37.389 16.512707 3.406654 29.22011 -0.848668
2003-04-08 12:27:39 51°9.946 2°37.432 16.630468 3.406232 29.219192 -0.848668
2003-04-08 12:28:38 51°9.961 2°37.47 16.914471 3.405811 29.218274 -0.848668
2003-04-08 12:29:39 51°9.985 2°37.504 16.817364 3.405706 29.220361 -0.848668
2003-04-08 12:30:39 51°10.003 2°37.541 16.771472 3.405495 29.220828 -0.848668
2003-04-08 12:31:39 51°10.02 2°37.578 16.71978 3.405074 29.220529 -0.848668
2003-04-08 12:32:39 51°10.039 2°37.612 16.798638 3.404653 29.220847 -0.848668
2003-04-08 12:33:39 51°10.061 2°37.65 16.55958 3.404547 29.222935 -0.882377
2003-04-08 12:34:39 51°10.08 2°37.686 16.850779 3.404126 29.222636 -0.848668
2003-04-08 12:35:38 51°10.097 2°37.725 16.793002 3.403705 29.222336 -0.814958
2003-04-08 12:36:38 51°10.113 2°37.769 16.732844 3.403389 29.22304 -0.882377
2003-04-08 12:37:39 51°10.122 2°37.816 16.609864 3.402862 29.222356 -0.814958
2003-04-08 12:38:39 51°10.132 2°37.861 17.032855 3.402652 29.222826 -0.814958
2003-04-08 12:39:39 51°10.146 2°37.906 16.731742 3.40223 29.222527 -0.814958
2003-04-08 12:40:39 51°10.148 2°37.946 17.127972 3.401914 29.222612 -0.882377
2003-04-08 12:41:38 51°10.143 2°37.978 16.892937 3.401704 29.221844 -0.882377
2003-04-08 12:42:39 51°10.133 2°38.01 16.3417 3.401388 29.220691 -0.848668
2003-04-08 12:43:39 51°10.119 2°38.056 17.082329 3.401388 29.223167 -0.848668
2003-04-08 12:44:39 51°10.118 2°38.148 16.844597 3.401072 29.222633 -0.848668
2003-04-08 12:45:38 51°10.122 2°38.197 16.751758 3.401072 29.22449 -0.882377
2003-04-08 12:46:39 51°10.117 2°38.212 16.884135 3.400651 29.221715 -0.814958
2003-04-08 12:47:39 51°10.109 2°38.209 16.903176 3.400756 29.225814 -0.882377
2003-04-08 12:48:39 51°10.095 2°38.199 16.844766 3.40044 29.225281 -0.848668
2003-04-08 12:49:39 51°10.082 2°38.189 16.990698 3.40044 29.227138 -0.882377
2003-04-08 12:50:39 51°10.069 2°38.181 17.201519 3.400019 29.225602 -0.848668
2003-04-08 12:51:39 51°10.056 2°38.168 17.036824 3.399808 29.226072 -0.848668
2003-04-08 12:52:39 51°10.042 2°38.156 17.106968 3.399492 29.225539 -0.848668
2003-04-08 12:53:39 51°10.028 2°38.143 16.80707 3.399281 29.22601 -0.848668
2003-04-08 12:54:39 51°10.014 2°38.13 17.021959 3.399176 29.228723 -0.882377
2003-04-08 12:55:38 51°10 2°38.121 16.961875 3.398755 29.227806 -0.882377
2003-04-08 12:56:38 51°9.985 2°38.106 16.868729 3.398544 29.228897 -0.848668
2003-04-08 12:57:39 51°9.967 2°38.092 16.741454 3.398228 29.228364 -0.848668
2003-04-08 12:58:39 51°9.951 2°38.088 17.058652 3.398018 29.229456 -0.882377
2003-04-08 12:59:39 51°9.932 2°38.083 16.821304 3.397596 29.228539 -0.848668
2003-04-08 13:00:39 51°9.92 2°38.088 17.417534 3.397386 29.23025 -0.848668
2003-04-08 13:01:39 51°9.905 2°38.09 16.978612 3.39707 29.230338 -0.848668
2003-04-08 13:02:39 51°9.893 2°38.099 17.018327 3.396859 29.23205 -0.848668
2003-04-08 13:03:39 51°9.879 2°38.096 17.327274 3.396438 29.231134 -0.848668
2003-04-08 13:04:39 51°9.864 2°38.091 17.991751 3.396122 29.230601 -0.848668
2003-04-08 13:05:39 51°9.852 2°38.088 17.105196 3.395701 29.229064 -0.848668
2003-04-08 13:06:39 51°9.842 2°38.085 17.148379 3.39549 29.230157 -0.882377
2003-04-08 13:07:39 51°9.83 2°38.081 17.020101 3.395174 29.229624 -0.848668
2003-04-08 13:08:39 51°9.814 2°38.069 16.993402 3.394963 29.229476 -0.848668
2003-04-08 13:09:39 51°9.798 2°38.058 17.03522 3.394753 29.229948 -0.848668
2003-04-08 13:10:39 51°9.786 2°38.052 17.144374 3.394648 29.230806 -0.848668
2003-04-08 13:11:39 51°9.772 2°38.046 17.318611 3.394437 29.230658 -0.848668
2003-04-08 13:12:39 51°9.758 2°38.038 17.05329 3.394332 29.231515 -0.848668
2003-04-08 13:13:38 51°9.748 2°38.035 17.127508 3.393805 29.229593 -0.848668
2003-04-08 13:14:39 51°9.731 2°38.025 16.472231 3.393805 29.230835 -0.882377
2003-04-08 13:15:38 51°9.721 2°38.024 16.902922 3.393594 29.231308 -0.848668
2003-04-08 13:16:39 51°9.706 2°38.015 17.39078 3.393489 29.230923 -0.882377
2003-04-08 13:17:39 51°9.69 2°38.004 17.052784 3.393278 29.229533 -0.882377
2003-04-08 13:18:39 51°9.675 2°37.998 16.871607 3.393173 29.228528 -0.848668
2003-04-08 13:19:38 51°9.663 2°37.993 17.029139 3.393173 29.229149 -0.848668
2003-04-08 13:20:39 51°9.65 2°37.988 17.621069 3.393278 29.229533 -0.882377
2003-04-08 13:21:39 51°9.637 2°37.982 17.00802 3.393278 29.228912 -0.848668
2003-04-08 13:22:38 51°9.625 2°37.977 17.291608 3.393278 29.22767 -0.848668
2003-04-08 13:23:39 51°9.612 2°37.979 17.226916 3.393489 29.230302 -0.848668
2003-04-08 13:24:39 51°9.597 2°37.974 17.162163 3.393594 29.230066 -0.882377
2003-04-08 13:25:38 51°9.584 2°37.971 16.993318 3.393805 29.231455 -0.848668
2003-04-08 13:26:39 51°9.571 2°37.971 17.241274 3.394016 29.232224 -0.882377
2003-04-08 13:27:39 51°9.557 2°37.975 17.209817 3.394121 29.232609 -0.848668
2003-04-08 13:28:39 51°9.551 2°38.018 17.351658 3.394121 29.231988 -0.814958
2003-04-08 13:29:39 51°9.617 2°38.128 17.355819 3.394542 29.232904 -0.848668
2003-04-08 13:30:39 51°9.75 2°38.31 17.092582 3.394858 29.234678 -0.848668
2003-04-08 13:31:39 51°9.891 2°38.57 17.367082 3.394858 29.235299 -0.848668
2003-04-08 13:32:39 51°9.978 2°38.893 17.140875 3.395174 29.236452 -0.814958
2003-04-08 13:33:40 51°10.046 2°39.235 17.013174 3.395385 29.237842 -0.848668
2003-04-08 13:34:39 51°10.113 2°39.569 17.2627 3.395701 29.239616 -0.848668
2003-04-08 13:35:39 51°10.197 2°39.902 17.19579 3.396017 29.242631 -0.882377
2003-04-08 13:36:40 51°10.29 2°40.235 -999 3.396227 29.242778 -0.848668
2003-04-08 13:37:39 51°10.382 2°40.556 -999 3.396438 29.244168 -0.848668
2003-04-08 13:38:39 51°10.476 2°40.883 -999 3.396649 29.246799 -0.882377
2003-04-08 13:39:39 51°10.57 2°41.214 -999 3.396754 29.247183 -0.814958
2003-04-08 13:40:40 51°10.665 2°41.551 -999 3.396859 29.248188 -0.814958
2003-04-08 13:41:39 51°10.756 2°41.878 -999 3.396965 29.247951 -0.848668
2003-04-08 13:42:39 51°10.85 2°42.21 -999 3.397281 29.251588 -0.882377
2003-04-08 13:43:39 51°10.943 2°42.541 -999 3.397386 29.251351 -0.848668
2003-04-08 13:44:40 51°11.036 2°42.88 -999 3.397597 29.25274 -0.814958
2003-04-08 13:45:39 51°11.124 2°43.213 -999 3.397702 29.253124 -0.882377
2003-04-08 13:46:39 51°11.211 2°43.555 -999 3.398018 29.254897 -0.814958
2003-04-08 13:47:40 51°11.299 2°43.901 -999 3.398123 29.256523 -0.882377
2003-04-08 13:48:39 51°11.383 2°44.234 -999 3.398123 29.255281 -0.882377
2003-04-08 13:49:39 51°11.47 2°44.573 -999 3.398439 29.257054 -0.814958
2003-04-08 13:50:39 51°11.559 2°44.914 -999 3.39865 29.258442 -0.882377
2003-04-08 13:51:40 51°11.643 2°45.262 -999 3.398755 29.258826 -0.882377
2003-04-08 13:52:39 51°11.722 2°45.609 -999 3.398966 29.258352 -0.882377
2003-04-08 13:53:39 51°11.804 2°45.956 -999 3.399282 29.260124 -0.848668
2003-04-08 13:54:39 51°11.884 2°46.3 -999 3.399387 29.259266 -0.848668
2003-04-08 13:55:40 51°11.966 2°46.65 -999 3.399703 29.261039 -0.848668
2003-04-08 13:56:39 51°12.047 2°46.989 -999 3.400019 29.26219 -0.848668
2003-04-08 13:57:39 51°12.134 2°47.339 -999 3.40023 29.262957 -0.848668
2003-04-08 13:58:40 51°12.229 2°47.683 -999 3.400651 29.265113 -0.882377
2003-04-08 13:59:39 51°12.324 2°48.006 -999 3.400862 29.264639 -0.848668
2003-04-08 14:00:39 51°12.426 2°48.334 -999 3.401178 29.26579 -0.848668
2003-04-08 14:01:39 51°12.529 2°48.668 -999 3.401494 29.266941 -0.882377
2003-04-08 14:02:40 51°12.637 2°49.011 -999 3.40181 29.26685 -0.882377
2003-04-08 14:03:40 51°12.737 2°49.347 -999 3.402126 29.268001 -0.848668
2003-04-08 14:04:39 51°12.83 2°49.68 -999 3.402547 29.270156 -0.848668
2003-04-08 14:05:38 51°12.924 2°50.013 -999 3.402968 29.270448 -0.848668
2003-04-08 14:06:40 51°13.02 2°50.362 -999 3.40339 29.271982 -0.848668
2003-04-08 14:07:39 51°13.122 2°50.699 -999 3.403811 29.274137 -0.882377
2003-04-08 14:08:39 51°13.224 2°51.03 -999 3.404232 29.27567 -0.848668
2003-04-08 14:09:39 51°13.326 2°51.363 -999 3.404548 29.275579 -0.848668
2003-04-08 14:10:39 51°13.428 2°51.696 -999 3.405075 29.277496 -0.848668
2003-04-08 14:11:39 51°13.53 2°52.032 -999 3.405601 29.280033 -0.882377
2003-04-08 14:12:39 51°13.631 2°52.366 -999 3.405812 29.279558 -0.848668
2003-04-08 14:13:40 51°13.758 2°52.622 -999 3.406233 29.281091 -0.882377
2003-04-08 14:14:38 51°13.829 2°52.74 -999 3.40676 29.282387 -0.848668
2003-04-08 14:15:40 51°13.868 2°52.83 -999 3.407076 29.284156 -0.882377
2003-04-08 14:16:40 51°13.902 2°52.91 -999 3.407497 29.285069 -0.882377
2003-04-08 14:17:38 51°13.952 2°53.033 -999 3.407919 29.28536 -0.848668
2003-04-08 14:18:39 51°14.08 2°53.289 -999 3.40834 29.286893 -0.848668
2003-04-08 14:19:39 51°14.208 2°53.572 -999 3.408761 29.288425 -0.882377
2003-04-08 14:20:40 51°14.328 2°53.869 -999 3.409288 29.29096 -0.882377
2003-04-08 14:21:40 51°14.418 2°54.192 -999 3.409604 29.290248 -0.848668
2003-04-08 14:22:39 51°14.445 2°54.53 -999 3.41013 29.292162 -0.848668
2003-04-08 14:23:38 51°14.418 2°54.867 -999 3.410657 29.295937 -0.882377